Terminal Aerodrome Forecast
Issued by NWS Twin Cities, MN

Home | Current Version | Previous Version | Graphics & Text | Print | Product List | Glossary On
Versions: 1 2 3 4 5 6 7 8 9 10 11 12 13 14 15 16
000
FTUS43 KMPX 240800 AAA
TAFEAU
TAF AMD
KEAU 240847Z 2409/2506 00000KT P6SM SCT070
     FM241300 13003KT P6SM FEW070
     FM241800 17007KT P6SM SCT250
     FM250300 16005KT P6SM BKN080=

USA.gov is the U.S. government's official web portal to all federal, state and local government web resources and services.